createdAt,value
2023-04-25T00:00:53.570Z,12.50
2023-04-25T00:01:55.704Z,12.50
2023-04-25T00:03:00.867Z,12.40
2023-04-25T00:04:03.908Z,12.40
2023-04-25T00:05:06.632Z,12.40
2023-04-25T00:06:09.588Z,12.30
2023-04-25T00:07:12.235Z,12.30
2023-04-25T00:08:14.396Z,12.30
2023-04-25T00:09:16.390Z,12.40
2023-04-25T00:10:18.374Z,12.40
2023-04-25T00:11:20.491Z,12.40
2023-04-25T00:12:24.002Z,12.30
2023-04-25T00:13:26.667Z,12.40
2023-04-25T00:14:28.953Z,12.30
2023-04-25T00:15:33.736Z,12.30
2023-04-25T00:16:36.671Z,12.40
2023-04-25T00:17:39.637Z,12.40
2023-04-25T00:18:43.765Z,12.30
2023-04-25T00:19:47.231Z,12.40
2023-04-25T00:20:49.615Z,12.40
2023-04-25T00:21:51.689Z,12.40
2023-04-25T00:22:54.526Z,12.40
2023-04-25T00:23:57.232Z,12.40
2023-04-25T00:25:01.274Z,12.40
2023-04-25T00:26:03.904Z,12.50
2023-04-25T00:27:05.945Z,12.60
2023-04-25T00:28:07.936Z,12.60
2023-04-25T00:29:09.972Z,12.60
2023-04-25T00:30:12.784Z,12.60
2023-04-25T00:31:15.279Z,12.60
2023-04-25T00:32:17.401Z,12.70
2023-04-25T00:33:19.404Z,12.70
2023-04-25T00:34:21.661Z,12.70
2023-04-25T00:35:23.664Z,12.60
2023-04-25T00:36:25.890Z,12.60
2023-04-25T00:37:28.023Z,12.60
2023-04-25T00:38:30.437Z,12.60
2023-04-25T00:39:34.665Z,12.60
2023-04-25T00:40:36.790Z,12.60
2023-04-25T00:41:39.631Z,12.60
2023-04-25T00:42:42.676Z,12.60
2023-04-25T00:43:46.060Z,12.70
2023-04-25T00:44:48.734Z,12.60
2023-04-25T00:45:53.207Z,12.60
2023-04-25T00:46:56.694Z,12.60
2023-04-25T00:47:58.904Z,12.70
2023-04-25T00:49:00.885Z,12.70
2023-04-25T00:50:02.950Z,12.80
2023-04-25T00:51:05.037Z,12.80
2023-04-25T00:52:07.233Z,12.80
2023-04-25T00:53:11.021Z,12.80
2023-04-25T00:54:13.736Z,12.80
2023-04-25T00:55:17.005Z,12.80
2023-04-25T00:56:19.403Z,12.80
2023-04-25T00:57:21.540Z,12.80
2023-04-25T00:58:24.144Z,12.70
2023-04-25T00:59:26.892Z,12.60
2023-04-25T01:00:29.320Z,12.50
2023-04-25T01:01:32.415Z,12.50
2023-04-25T01:02:36.685Z,12.40
2023-04-25T01:03:44.094Z,12.40
2023-04-25T01:04:46.376Z,12.40
2023-04-25T01:05:49.244Z,12.40
2023-04-25T01:06:51.382Z,12.30
2023-04-25T01:07:53.615Z,12.30
2023-04-25T01:08:56.240Z,12.20
2023-04-25T01:09:58.918Z,12.20
2023-04-25T01:11:00.949Z,12.20
2023-04-25T01:12:03.897Z,12.20
2023-04-25T01:13:06.222Z,12.20
2023-04-25T01:14:08.238Z,12.20
2023-04-25T01:15:10.628Z,12.20
2023-04-25T01:16:12.852Z,12.20
2023-04-25T01:17:15.957Z,12.20
2023-04-25T01:18:19.073Z,12.20
2023-04-25T01:19:21.275Z,12.20
2023-04-25T01:20:24.191Z,12.20
2023-04-25T01:21:28.355Z,12.30
2023-04-25T01:22:30.655Z,12.20
2023-04-25T01:23:34.277Z,12.30
2023-04-25T01:24:36.866Z,12.30
2023-04-25T01:25:39.589Z,12.30
2023-04-25T01:26:50.346Z,12.30
2023-04-25T01:27:56.995Z,12.20
2023-04-25T01:28:59.864Z,12.20
2023-04-25T01:30:01.980Z,12.20
2023-04-25T01:31:05.435Z,12.20
2023-04-25T01:32:08.422Z,12.20
2023-04-25T01:33:11.180Z,12.20
2023-04-25T01:34:13.674Z,12.20
2023-04-25T01:35:15.988Z,12.30
2023-04-25T01:36:18.660Z,12.30
2023-04-25T01:37:21.121Z,12.30
2023-04-25T01:38:23.322Z,12.30
2023-04-25T01:39:25.867Z,12.30
2023-04-25T01:40:29.014Z,12.30
2023-04-25T01:41:33.242Z,12.40
2023-04-25T01:42:36.501Z,12.30
2023-04-25T01:43:38.571Z,12.30
2023-04-25T01:44:40.754Z,12.30
2023-04-25T01:45:43.223Z,12.30
2023-04-25T01:46:46.637Z,12.30
2023-04-25T01:47:50.598Z,12.40
2023-04-25T01:48:52.730Z,12.40
2023-04-25T01:49:54.983Z,12.40
2023-04-25T01:50:57.023Z,12.40
2023-04-25T01:51:59.065Z,12.50
2023-04-25T01:53:02.977Z,12.50
2023-04-25T01:54:05.373Z,12.60
2023-04-25T01:55:07.974Z,12.60
2023-04-25T01:56:12.700Z,12.60
2023-04-25T01:57:15.438Z,12.50
2023-04-25T01:58:18.747Z,12.60
2023-04-25T01:59:54.788Z,12.60
2023-04-25T02:01:15.261Z,12.60
2023-04-25T02:02:23.809Z,12.60
2023-04-25T02:03:26.475Z,12.70
2023-04-25T02:04:29.181Z,12.70
2023-04-25T02:05:37.083Z,12.70
2023-04-25T02:06:40.776Z,12.80
2023-04-25T02:07:43.447Z,12.80
2023-04-25T02:08:45.401Z,12.80
2023-04-25T02:09:49.234Z,12.80
2023-04-25T02:10:52.780Z,12.80
2023-04-25T02:11:55.402Z,12.80
2023-04-25T02:13:10.141Z,12.80
2023-04-25T02:14:32.449Z,12.80
2023-04-25T02:15:46.974Z,12.80
2023-04-25T02:16:55.259Z,12.80
2023-04-25T02:17:59.034Z,12.70
2023-04-25T02:19:01.201Z,12.70
2023-04-25T02:20:03.892Z,12.70
2023-04-25T02:21:06.623Z,12.70
2023-04-25T02:22:08.636Z,12.70
2023-04-25T02:23:10.761Z,12.70
2023-04-25T02:24:12.865Z,12.70
2023-04-25T02:25:15.107Z,12.70
2023-04-25T02:26:17.115Z,12.70
2023-04-25T02:27:19.071Z,12.70
2023-04-25T02:28:21.106Z,12.70
2023-04-25T02:29:23.260Z,12.70
2023-04-25T02:30:25.381Z,12.70
2023-04-25T02:31:27.534Z,12.70
2023-04-25T02:32:29.647Z,12.70
2023-04-25T02:33:31.701Z,12.70
2023-04-25T02:34:33.693Z,12.70
2023-04-25T02:35:36.594Z,12.70
2023-04-25T02:36:38.726Z,12.70
2023-04-25T02:37:41.577Z,12.70
2023-04-25T02:38:43.566Z,12.70
2023-04-25T02:39:45.709Z,12.70
2023-04-25T02:40:48.097Z,12.60
2023-04-25T02:41:50.191Z,12.60
2023-04-25T02:42:52.557Z,12.60
2023-04-25T02:43:54.544Z,12.60
2023-04-25T02:44:56.700Z,12.60
2023-04-25T02:45:58.883Z,12.60
2023-04-25T02:47:00.923Z,12.60
2023-04-25T02:48:04.263Z,12.60
2023-04-25T02:49:08.083Z,12.60
2023-04-25T02:50:11.079Z,12.50
2023-04-25T02:51:15.041Z,12.50
2023-04-25T02:52:17.477Z,12.60
2023-04-25T02:53:23.103Z,12.60
2023-04-25T02:54:28.014Z,12.60
2023-04-25T02:55:30.689Z,12.50
2023-04-25T02:56:34.808Z,12.50
2023-04-25T02:57:36.891Z,12.50
2023-04-25T02:58:38.958Z,12.40
2023-04-25T02:59:41.036Z,12.40
2023-04-25T03:00:43.087Z,12.30
2023-04-25T03:01:46.340Z,12.30
2023-04-25T03:02:48.538Z,12.30
2023-04-25T03:03:51.096Z,12.30
2023-04-25T03:04:53.623Z,12.20
2023-04-25T03:05:55.658Z,12.10
2023-04-25T03:07:02.102Z,12.10
2023-04-25T03:08:04.290Z,12.10
2023-04-25T03:09:08.384Z,12.10
2023-04-25T03:10:11.091Z,12.10
2023-04-25T03:11:13.106Z,12.10
2023-04-25T03:12:17.559Z,12.10
2023-04-25T03:13:19.597Z,12.20
2023-04-25T03:14:22.110Z,12.20
2023-04-25T03:15:24.264Z,12.20
2023-04-25T03:16:27.901Z,12.20
2023-04-25T03:17:30.338Z,12.20
2023-04-25T03:18:32.656Z,12.30
2023-04-25T03:19:34.709Z,12.40
2023-04-25T03:20:36.844Z,12.40
2023-04-25T03:21:39.659Z,12.40
2023-04-25T03:22:41.719Z,12.50
2023-04-25T03:23:43.774Z,12.50
2023-04-25T03:24:45.919Z,12.50
2023-04-25T03:25:49.578Z,12.50
2023-04-25T03:26:51.707Z,12.50
2023-04-25T03:27:53.726Z,12.50
2023-04-25T03:28:55.722Z,12.50
2023-04-25T03:29:57.749Z,12.50
2023-04-25T03:31:00.042Z,12.50
2023-04-25T03:32:02.226Z,12.50
2023-04-25T03:33:04.389Z,12.50
2023-04-25T03:34:06.448Z,12.60
2023-04-25T03:35:08.793Z,12.60
2023-04-25T03:36:11.036Z,12.70
2023-04-25T03:37:13.339Z,12.70
2023-04-25T03:38:16.322Z,12.70
2023-04-25T03:39:18.398Z,12.70
2023-04-25T03:40:24.639Z,12.70
2023-04-25T03:41:56.036Z,12.80
2023-04-25T03:42:58.091Z,12.80
2023-04-25T03:44:00.123Z,12.80
2023-04-25T03:45:03.022Z,12.80
2023-04-25T03:46:05.971Z,12.90
2023-04-25T03:47:08.082Z,12.90
2023-04-25T03:48:10.186Z,12.90
2023-04-25T03:49:12.279Z,12.90
2023-04-25T03:50:43.182Z,12.90
2023-04-25T03:51:45.402Z,12.90
2023-04-25T03:52:47.473Z,13.00
2023-04-25T03:53:49.770Z,12.90
2023-04-25T03:54:55.108Z,13.00
2023-04-25T03:55:59.662Z,13.00
2023-04-25T03:57:01.630Z,13.00
2023-04-25T03:58:06.030Z,12.90
2023-04-25T03:59:08.912Z,13.00
2023-04-25T04:00:11.578Z,13.00
2023-04-25T04:01:16.268Z,12.90
2023-04-25T04:02:19.594Z,13.00
2023-04-25T04:03:22.272Z,13.00
2023-04-25T04:04:25.473Z,13.00
2023-04-25T04:05:28.555Z,13.00
2023-04-25T04:06:32.178Z,13.00
2023-04-25T04:07:54.937Z,13.00
2023-04-25T04:08:57.781Z,13.00
2023-04-25T04:10:00.573Z,13.00
2023-04-25T04:11:08.950Z,13.10
2023-04-25T04:12:11.287Z,13.10
2023-04-25T04:13:15.346Z,13.10
2023-04-25T04:14:17.831Z,13.20
2023-04-25T04:15:21.936Z,13.20
2023-04-25T04:16:24.905Z,13.20
2023-04-25T04:17:27.317Z,13.20
2023-04-25T04:18:29.464Z,13.10
2023-04-25T04:19:32.484Z,13.10
2023-04-25T04:20:43.575Z,13.10
2023-04-25T04:21:45.679Z,13.00
2023-04-25T04:22:48.222Z,13.10
2023-04-25T04:23:51.518Z,13.10
2023-04-25T04:24:53.937Z,13.10
2023-04-25T04:26:04.936Z,13.10
2023-04-25T04:27:34.380Z,13.10
2023-04-25T04:28:52.902Z,13.10
2023-04-25T04:30:16.890Z,13.00
2023-04-25T04:31:31.307Z,12.90
2023-04-25T04:32:35.707Z,12.90
2023-04-25T04:33:38.955Z,12.80
2023-04-25T04:34:42.243Z,12.80
2023-04-25T04:35:44.847Z,12.80
2023-04-25T04:36:47.950Z,12.80
2023-04-25T04:37:50.495Z,12.80
2023-04-25T04:38:55.108Z,12.80
2023-04-25T04:40:09.047Z,12.80
2023-04-25T04:41:36.955Z,12.80
2023-04-25T04:43:07.259Z,12.80
2023-04-25T04:44:40.079Z,12.80
2023-04-25T04:45:59.695Z,12.80
2023-04-25T04:47:26.966Z,12.80
2023-04-25T04:48:41.157Z,12.80
2023-04-25T04:50:16.028Z,12.80
2023-04-25T04:51:37.641Z,12.80
2023-04-25T04:52:57.326Z,12.80
2023-04-25T04:54:28.119Z,12.80
2023-04-25T04:55:47.366Z,12.80
2023-04-25T04:57:22.845Z,12.80
2023-04-25T04:58:50.130Z,12.90
2023-04-25T05:00:13.333Z,12.90
2023-04-25T05:01:30.206Z,12.90
2023-04-25T05:02:52.302Z,12.80
2023-04-25T05:04:13.322Z,12.90
2023-04-25T05:05:23.599Z,12.90
2023-04-25T05:06:43.193Z,13.00
2023-04-25T05:08:03.965Z,12.90
2023-04-25T05:09:29.148Z,13.00
2023-04-25T05:10:45.712Z,13.00
2023-04-25T05:12:02.163Z,13.00
2023-04-25T05:13:13.669Z,13.00
2023-04-25T05:14:35.927Z,13.00
2023-04-25T05:16:04.211Z,13.10
2023-04-25T05:17:24.996Z,13.10
2023-04-25T05:18:37.880Z,13.10
2023-04-25T05:19:44.805Z,13.10
2023-04-25T05:21:13.303Z,13.20
2023-04-25T05:22:34.127Z,13.20
2023-04-25T05:23:46.243Z,13.30
2023-04-25T05:25:14.647Z,13.20
2023-04-25T05:26:38.827Z,13.30
2023-04-25T05:27:59.679Z,13.40
2023-04-25T05:29:34.164Z,13.40
2023-04-25T05:30:52.433Z,13.50
2023-04-25T05:31:57.869Z,13.50
2023-04-25T05:33:00.057Z,13.60
2023-04-25T05:34:03.187Z,13.70
2023-04-25T05:35:16.301Z,13.70
2023-04-25T05:36:22.452Z,13.80
2023-04-25T05:37:24.788Z,13.80
2023-04-25T05:38:34.789Z,13.90
2023-04-25T05:39:55.146Z,13.90
2023-04-25T05:41:13.317Z,13.90
2023-04-25T05:42:35.728Z,14.00
2023-04-25T05:43:59.055Z,14.10
2023-04-25T05:45:18.584Z,14.10
2023-04-25T05:46:39.534Z,14.20
2023-04-25T05:47:51.506Z,14.30
2023-04-25T05:49:13.906Z,14.40
2023-04-25T05:50:32.605Z,14.40
2023-04-25T05:51:52.269Z,14.50
2023-04-25T05:53:14.614Z,14.50
2023-04-25T05:54:18.874Z,14.60
2023-04-25T05:55:21.056Z,14.70
2023-04-25T05:56:23.111Z,14.70
2023-04-25T05:57:28.388Z,14.80
2023-04-25T05:58:32.147Z,14.80
2023-04-25T05:59:35.406Z,14.80
2023-04-25T06:00:37.868Z,14.90
2023-04-25T06:01:39.898Z,15.00
2023-04-25T06:02:42.502Z,15.10
2023-04-25T06:03:46.517Z,15.20
2023-04-25T06:04:52.404Z,15.30
2023-04-25T06:05:54.665Z,15.50
2023-04-25T06:06:56.731Z,15.70
2023-04-25T06:07:58.764Z,15.80
2023-04-25T06:09:01.448Z,15.80
2023-04-25T06:10:04.861Z,15.80
2023-04-25T06:11:07.192Z,15.90
2023-04-25T06:12:09.241Z,15.90
2023-04-25T06:13:11.410Z,16.00
2023-04-25T06:14:13.808Z,16.10
2023-04-25T06:15:28.141Z,16.30
2023-04-25T06:16:31.198Z,16.40
2023-04-25T06:17:33.683Z,16.50
2023-04-25T06:18:36.445Z,16.60
2023-04-25T06:19:38.674Z,16.70
2023-04-25T06:20:40.802Z,16.80
2023-04-25T06:21:45.226Z,16.90
2023-04-25T06:22:47.315Z,16.90
2023-04-25T06:23:49.610Z,16.90
2023-04-25T06:24:59.946Z,17.00
2023-04-25T06:26:02.875Z,17.00
2023-04-25T06:27:06.270Z,17.00
2023-04-25T06:28:08.600Z,17.20
2023-04-25T06:29:10.945Z,17.20
2023-04-25T06:30:13.571Z,17.10
2023-04-25T06:31:16.338Z,17.10
2023-04-25T06:32:19.975Z,17.00
2023-04-25T06:33:23.227Z,16.90
2023-04-25T06:34:25.828Z,17.00
2023-04-25T06:35:28.055Z,17.10
2023-04-25T06:36:30.118Z,17.20
2023-04-25T06:37:38.072Z,17.30
2023-04-25T06:38:40.252Z,17.30
2023-04-25T06:39:42.261Z,17.30
2023-04-25T06:40:44.238Z,17.40
2023-04-25T06:41:46.269Z,17.40
2023-04-25T06:43:11.677Z,17.50
2023-04-25T06:44:32.276Z,17.60
2023-04-25T06:45:34.346Z,17.60
2023-04-25T06:46:37.402Z,17.60
2023-04-25T06:47:39.982Z,17.50
2023-04-25T06:48:42.033Z,17.50
2023-04-25T06:49:44.117Z,17.60
2023-04-25T06:50:46.735Z,17.60
2023-04-25T06:51:49.366Z,17.80
2023-04-25T06:52:51.626Z,17.90
2023-04-25T06:53:55.387Z,17.90
2023-04-25T06:55:06.663Z,18.00
2023-04-25T06:56:22.092Z,18.10
2023-04-25T06:57:32.275Z,18.50
2023-04-25T06:58:45.801Z,18.70
2023-04-25T07:00:10.632Z,19.00
2023-04-25T07:01:14.003Z,19.10
2023-04-25T07:02:16.366Z,19.20
2023-04-25T07:03:18.614Z,19.20
2023-04-25T07:04:20.958Z,19.00
2023-04-25T07:05:30.084Z,19.00
2023-04-25T07:06:33.152Z,18.80
2023-04-25T07:07:35.223Z,18.70
2023-04-25T07:08:37.922Z,18.60
2023-04-25T07:09:39.981Z,18.50
2023-04-25T07:10:42.062Z,18.50
2023-04-25T07:11:44.181Z,18.80
2023-04-25T07:12:46.398Z,19.10
2023-04-25T07:13:48.395Z,19.40
2023-04-25T07:14:50.515Z,19.50
2023-04-25T07:15:52.580Z,19.50
2023-04-25T07:16:59.454Z,19.30
2023-04-25T07:18:02.866Z,19.20
2023-04-25T07:19:04.909Z,19.30
2023-04-25T07:20:07.635Z,19.40
2023-04-25T07:21:09.735Z,19.30
2023-04-25T07:22:12.988Z,19.20
2023-04-25T07:23:17.145Z,19.20
2023-04-25T07:24:19.423Z,19.00
2023-04-25T07:25:22.957Z,19.00
2023-04-25T07:26:25.718Z,18.80
2023-04-25T07:27:48.054Z,18.80
2023-04-25T07:28:53.156Z,18.60
2023-04-25T07:29:55.246Z,18.50
2023-04-25T07:30:59.301Z,18.50
2023-04-25T07:32:01.381Z,18.40
2023-04-25T07:33:03.808Z,18.40
2023-04-25T07:34:06.390Z,18.40
2023-04-25T07:35:11.723Z,18.50
2023-04-25T07:36:14.072Z,18.50
2023-04-25T07:37:16.259Z,18.60
2023-04-25T07:38:33.081Z,18.50
2023-04-25T07:39:35.589Z,18.60
2023-04-25T07:40:37.543Z,18.60
2023-04-25T07:41:42.909Z,18.60
2023-04-25T07:42:49.725Z,18.60
2023-04-25T07:43:57.269Z,18.60
2023-04-25T07:44:59.384Z,18.50
2023-04-25T07:46:01.460Z,18.50
2023-04-25T07:47:10.005Z,18.50
2023-04-25T07:48:12.250Z,18.50
2023-04-25T07:49:15.838Z,18.40
2023-04-25T07:50:19.780Z,18.40
2023-04-25T07:51:23.236Z,18.40
2023-04-25T07:52:27.909Z,18.50
2023-04-25T07:53:38.775Z,18.60
2023-04-25T07:54:46.303Z,18.60
2023-04-25T07:55:53.115Z,18.60
2023-04-25T07:56:56.715Z,18.60
2023-04-25T07:58:03.380Z,18.60
2023-04-25T07:59:07.241Z,18.60
2023-04-25T08:00:12.326Z,18.60
2023-04-25T08:01:18.735Z,18.60
2023-04-25T08:02:41.487Z,18.50
2023-04-25T08:03:47.663Z,18.40
2023-04-25T08:04:58.871Z,18.30
2023-04-25T08:06:02.784Z,18.10
2023-04-25T08:07:09.279Z,18.00
2023-04-25T08:08:17.835Z,18.20
2023-04-25T08:09:19.986Z,18.50
2023-04-25T08:10:24.123Z,18.80
2023-04-25T08:11:26.251Z,19.20
2023-04-25T08:12:29.186Z,19.30
2023-04-25T08:13:31.837Z,19.40
2023-04-25T08:14:41.507Z,19.50
2023-04-25T08:15:45.767Z,19.60
2023-04-25T08:16:48.498Z,20.20
2023-04-25T08:17:50.836Z,20.70
2023-04-25T08:18:53.263Z,21.30
2023-04-25T08:19:56.514Z,21.70
2023-04-25T08:21:02.477Z,22.10
2023-04-25T08:22:04.567Z,22.70
2023-04-25T08:23:17.469Z,23.10
2023-04-25T08:24:52.656Z,23.10
2023-04-25T08:26:01.195Z,23.60
2023-04-25T08:27:13.342Z,23.70
2023-04-25T08:28:16.517Z,23.70
2023-04-25T08:29:19.852Z,23.70
2023-04-25T08:30:22.435Z,23.50
2023-04-25T08:31:25.358Z,23.20
2023-04-25T08:32:39.156Z,22.80
2023-04-25T08:34:16.733Z,22.70
2023-04-25T08:35:24.353Z,22.60
2023-04-25T08:36:38.676Z,22.30
2023-04-25T08:37:50.562Z,21.90
2023-04-25T08:38:55.622Z,21.50
2023-04-25T08:39:58.081Z,21.10
2023-04-25T08:41:02.203Z,20.70
2023-04-25T08:42:10.421Z,20.40
2023-04-25T08:43:16.018Z,20.10
2023-04-25T08:44:18.039Z,19.80
2023-04-25T08:45:20.308Z,19.60
2023-04-25T08:46:22.704Z,19.30
2023-04-25T08:47:39.658Z,19.10
2023-04-25T08:48:43.590Z,19.00
2023-04-25T08:49:47.703Z,18.90
2023-04-25T08:50:56.062Z,18.90
2023-04-25T08:52:01.592Z,18.90
2023-04-25T08:53:09.637Z,18.90
2023-04-25T08:55:19.215Z,19.60
2023-04-25T08:56:23.383Z,19.70
2023-04-25T08:57:26.036Z,19.80
2023-04-25T08:58:29.081Z,20.00
2023-04-25T08:59:33.218Z,20.60
2023-04-25T09:00:35.883Z,21.30
2023-04-25T09:01:38.428Z,21.80
2023-04-25T09:02:41.411Z,22.40
2023-04-25T09:03:45.136Z,23.00
2023-04-25T09:04:47.896Z,23.20
2023-04-25T09:05:51.207Z,23.70
2023-04-25T09:06:53.240Z,24.00
2023-04-25T09:07:55.391Z,24.00
2023-04-25T09:09:09.081Z,24.10
2023-04-25T09:10:11.358Z,24.40
2023-04-25T09:11:15.921Z,24.40
2023-04-25T09:12:21.001Z,24.60
2023-04-25T09:13:28.172Z,24.60
2023-04-25T09:15:11.322Z,24.90
2023-04-25T09:16:33.703Z,25.00
2023-04-25T09:18:00.660Z,25.30
2023-04-25T09:19:08.240Z,25.10
2023-04-25T09:20:13.428Z,24.70
2023-04-25T09:21:15.854Z,24.50
2023-04-25T09:22:23.729Z,24.00
2023-04-25T09:23:26.065Z,23.90
2023-04-25T09:24:40.722Z,23.80
2023-04-25T09:25:44.473Z,24.10
2023-04-25T09:26:46.507Z,24.40
2023-04-25T09:27:53.205Z,24.60
2023-04-25T09:29:08.404Z,24.80
2023-04-25T09:30:16.839Z,25.10
2023-04-25T09:31:37.708Z,25.30
2023-04-25T09:32:43.309Z,25.40
2023-04-25T09:33:45.424Z,25.10
2023-04-25T09:34:58.164Z,25.20
2023-04-25T09:36:06.393Z,25.30
2023-04-25T09:37:31.331Z,25.60
2023-04-25T09:38:44.529Z,25.20
2023-04-25T09:40:08.950Z,24.50
2023-04-25T09:41:25.496Z,24.00
2023-04-25T09:42:32.500Z,24.40
2023-04-25T09:43:34.479Z,24.40
2023-04-25T09:44:37.308Z,24.20
2023-04-25T09:45:48.383Z,23.80
2023-04-25T09:46:55.318Z,23.90
2023-04-25T09:48:05.604Z,23.40
2023-04-25T09:49:09.598Z,23.30
2023-04-25T09:50:31.998Z,23.70
2023-04-25T09:51:41.771Z,24.20
2023-04-25T09:52:45.524Z,24.50
2023-04-25T09:53:57.402Z,24.90
2023-04-25T09:55:10.369Z,25.10
2023-04-25T09:56:13.455Z,24.50
2023-04-25T09:57:22.380Z,24.80
2023-04-25T09:58:27.090Z,24.90
2023-04-25T09:59:32.712Z,25.00
2023-04-25T10:00:36.314Z,25.20
2023-04-25T10:01:53.616Z,25.30
2023-04-25T10:03:04.827Z,25.60
2023-04-25T10:04:36.300Z,25.90
2023-04-25T10:05:50.360Z,26.00
2023-04-25T10:06:55.958Z,26.10
2023-04-25T10:07:59.787Z,26.00
2023-04-25T10:09:02.403Z,25.80
2023-04-25T10:10:05.960Z,25.90
2023-04-25T10:11:09.496Z,25.80
2023-04-25T10:12:12.013Z,25.90
2023-04-25T10:13:15.793Z,26.00
2023-04-25T10:14:18.150Z,25.90
2023-04-25T10:15:21.049Z,25.60
2023-04-25T10:16:23.580Z,26.00
2023-04-25T10:17:26.832Z,26.10
2023-04-25T10:18:30.514Z,26.20
2023-04-25T10:19:33.143Z,26.60
2023-04-25T10:20:35.309Z,26.70
2023-04-25T10:21:54.273Z,26.50
2023-04-25T10:23:06.388Z,26.80
2023-04-25T10:24:09.089Z,26.20
2023-04-25T10:25:12.271Z,26.80
2023-04-25T10:26:15.471Z,26.80
2023-04-25T10:27:17.955Z,26.90
2023-04-25T10:28:20.914Z,27.00
2023-04-25T10:29:25.115Z,27.20
2023-04-25T10:30:27.070Z,27.50
2023-04-25T10:31:31.987Z,27.40
2023-04-25T10:32:34.647Z,27.60
2023-04-25T10:33:38.697Z,27.40
2023-04-25T10:34:48.033Z,26.80
2023-04-25T10:35:51.316Z,26.70
2023-04-25T10:36:53.988Z,26.30
2023-04-25T10:38:00.622Z,26.50
2023-04-25T10:39:10.060Z,26.60
2023-04-25T10:40:13.283Z,26.20
2023-04-25T10:41:15.591Z,26.40
2023-04-25T10:42:18.625Z,26.60
2023-04-25T10:43:33.046Z,26.80
2023-04-25T10:44:37.806Z,27.10
2023-04-25T10:45:53.713Z,27.10
2023-04-25T10:47:00.638Z,27.20
2023-04-25T10:48:02.804Z,27.10
2023-04-25T10:49:04.877Z,27.20
2023-04-25T10:50:10.598Z,27.00
2023-04-25T10:51:17.264Z,27.30
2023-04-25T10:52:25.056Z,26.80
2023-04-25T10:53:34.485Z,26.20
2023-04-25T10:54:42.151Z,25.70
2023-04-25T10:55:54.157Z,25.30
2023-04-25T10:56:59.545Z,24.90
2023-04-25T10:58:02.100Z,24.50
2023-04-25T10:59:07.358Z,24.40
2023-04-25T11:00:16.217Z,24.50
2023-04-25T11:01:25.606Z,24.80
2023-04-25T11:02:32.213Z,25.30
2023-04-25T11:03:39.193Z,25.80
2023-04-25T11:04:42.510Z,25.90
2023-04-25T11:05:57.877Z,26.20
2023-04-25T11:07:17.179Z,26.60
2023-04-25T11:08:46.181Z,26.50
2023-04-25T11:09:48.479Z,26.00
2023-04-25T11:10:51.680Z,25.40
2023-04-25T11:11:57.759Z,25.00
2023-04-25T11:13:01.034Z,24.80
2023-04-25T11:14:02.954Z,24.30
2023-04-25T11:15:09.085Z,24.20
2023-04-25T11:16:13.313Z,24.10
2023-04-25T11:17:20.051Z,24.40
2023-04-25T11:18:22.123Z,24.30
2023-04-25T11:19:25.481Z,24.20
2023-04-25T11:20:29.772Z,24.10
2023-04-25T11:21:32.982Z,23.80
2023-04-25T11:22:35.013Z,23.70
2023-04-25T11:23:37.806Z,23.70
2023-04-25T11:24:39.893Z,23.70
2023-04-25T11:25:41.903Z,23.60
2023-04-25T11:26:44.973Z,23.50
2023-04-25T11:27:59.195Z,23.60
2023-04-25T11:29:01.540Z,24.30
2023-04-25T11:30:16.809Z,24.30
2023-04-25T11:31:22.688Z,24.90
2023-04-25T11:32:25.628Z,25.20
2023-04-25T11:33:29.611Z,25.10
2023-04-25T11:34:34.085Z,25.30
2023-04-25T11:35:36.465Z,25.60
2023-04-25T11:36:39.549Z,25.70
2023-04-25T11:37:42.356Z,25.30
2023-04-25T11:38:44.414Z,25.00
2023-04-25T11:39:49.897Z,25.20
2023-04-25T11:40:53.757Z,25.30
2023-04-25T11:41:56.392Z,25.00
2023-04-25T11:43:01.633Z,24.50
2023-04-25T11:44:04.540Z,24.20
2023-04-25T11:45:07.939Z,24.00
2023-04-25T11:46:10.069Z,23.90
2023-04-25T11:47:12.184Z,23.90
2023-04-25T11:48:14.324Z,23.90
2023-04-25T11:49:19.242Z,23.90
2023-04-25T11:50:21.494Z,23.80
2023-04-25T11:51:23.604Z,23.60
2023-04-25T11:52:25.567Z,23.50
2023-04-25T11:53:29.430Z,23.30
2023-04-25T11:54:32.963Z,23.10
2023-04-25T11:55:35.373Z,23.20
2023-04-25T11:56:37.402Z,23.20
2023-04-25T11:57:41.204Z,23.10
2023-04-25T11:58:58.936Z,23.20
2023-04-25T12:00:18.585Z,23.10
2023-04-25T12:01:38.158Z,23.20
2023-04-25T12:02:44.094Z,23.30
2023-04-25T12:03:49.217Z,23.30
2023-04-25T12:04:51.616Z,23.20
2023-04-25T12:05:54.011Z,23.30
2023-04-25T12:06:56.740Z,23.40
2023-04-25T12:07:58.857Z,23.50
2023-04-25T12:09:05.235Z,23.40
2023-04-25T12:10:09.147Z,23.40
2023-04-25T12:11:22.919Z,23.40
2023-04-25T12:12:29.242Z,23.50
2023-04-25T12:13:33.017Z,23.30
2023-04-25T12:14:36.939Z,23.20
2023-04-25T12:15:42.132Z,23.10
2023-04-25T12:16:46.450Z,22.90
2023-04-25T12:17:51.912Z,22.90
2023-04-25T12:18:54.507Z,22.90
2023-04-25T12:19:56.608Z,22.90
2023-04-25T12:20:59.550Z,22.80
2023-04-25T12:22:04.347Z,22.70
2023-04-25T12:23:09.731Z,22.60
2023-04-25T12:24:20.347Z,22.40
2023-04-25T12:25:43.043Z,22.40
2023-04-25T12:27:02.953Z,22.40
2023-04-25T12:28:14.260Z,22.40
2023-04-25T12:29:18.464Z,22.30
2023-04-25T12:30:20.559Z,22.20
2023-04-25T12:31:23.799Z,22.20
2023-04-25T12:32:27.407Z,22.10
2023-04-25T12:33:31.366Z,22.00
2023-04-25T12:34:35.967Z,22.00
2023-04-25T12:35:37.957Z,21.90
2023-04-25T12:36:40.465Z,21.70
2023-04-25T12:37:42.423Z,21.70
2023-04-25T12:38:44.496Z,21.70
2023-04-25T12:39:47.178Z,21.70
2023-04-25T12:40:49.311Z,21.60
2023-04-25T12:41:54.911Z,21.60
2023-04-25T12:42:58.498Z,21.70
2023-04-25T12:44:00.550Z,21.60
2023-04-25T12:45:02.532Z,21.30
2023-04-25T12:46:04.569Z,21.30
2023-04-25T12:48:20.838Z,21.10
2023-04-25T12:49:23.505Z,21.00
2023-04-25T12:50:25.688Z,20.80
2023-04-25T12:51:28.906Z,20.70
2023-04-25T12:52:30.938Z,20.60
2023-04-25T12:53:35.074Z,20.70
2023-04-25T12:54:37.668Z,20.60
2023-04-25T12:55:39.743Z,20.60
2023-04-25T12:56:42.871Z,20.60
2023-04-25T12:57:44.908Z,20.60
2023-04-25T12:58:47.597Z,20.50
2023-04-25T12:59:49.659Z,20.40
2023-04-25T13:00:51.769Z,20.30
2023-04-25T13:01:54.171Z,20.30
2023-04-25T13:02:56.549Z,20.40
2023-04-25T13:04:05.579Z,20.30
2023-04-25T13:05:14.779Z,20.30
2023-04-25T13:06:18.296Z,20.20
2023-04-25T13:07:20.393Z,20.20
2023-04-25T13:08:22.429Z,20.10
2023-04-25T13:09:24.479Z,20.10
2023-04-25T13:10:26.820Z,20.00
2023-04-25T13:12:35.962Z,20.00
2023-04-25T13:13:38.341Z,20.00
2023-04-25T13:14:40.412Z,20.10
2023-04-25T13:15:42.557Z,20.20
2023-04-25T13:16:44.736Z,20.20
2023-04-25T13:17:46.896Z,20.30
2023-04-25T13:19:54.056Z,20.40
2023-04-25T13:20:56.219Z,20.60
2023-04-25T13:21:58.265Z,20.60
2023-04-25T13:23:02.360Z,20.70
2023-04-25T13:24:05.336Z,20.70
2023-04-25T13:25:09.026Z,20.70
2023-04-25T13:26:11.357Z,20.60
2023-04-25T13:27:14.153Z,20.50
2023-04-25T13:28:17.122Z,20.40
2023-04-25T13:29:19.223Z,20.30
2023-04-25T13:30:22.524Z,20.30
2023-04-25T13:31:24.625Z,20.30
2023-04-25T13:32:26.890Z,20.30
2023-04-25T13:33:29.551Z,20.30
2023-04-25T13:34:37.807Z,20.30
2023-04-25T13:35:47.957Z,20.30
2023-04-25T13:36:49.989Z,20.30
2023-04-25T13:37:51.970Z,20.40
2023-04-25T13:38:54.141Z,20.60
2023-04-25T13:39:56.464Z,20.80
2023-04-25T13:40:58.650Z,21.00
2023-04-25T13:42:01.227Z,21.10
2023-04-25T13:43:03.364Z,21.30
2023-04-25T13:44:05.463Z,21.30
2023-04-25T13:45:08.696Z,21.60
2023-04-25T13:46:30.241Z,21.70
2023-04-25T13:47:35.322Z,21.70
2023-04-25T13:48:37.399Z,21.80
2023-04-25T13:49:39.424Z,21.80
2023-04-25T13:50:41.524Z,21.90
2023-04-25T13:51:43.810Z,22.00
2023-04-25T13:52:46.172Z,21.90
2023-04-25T13:53:48.627Z,21.90
2023-04-25T13:54:51.922Z,21.90
2023-04-25T13:55:53.888Z,21.80
2023-04-25T13:56:59.650Z,21.80
2023-04-25T13:58:08.098Z,21.90
2023-04-25T13:59:10.220Z,22.10
2023-04-25T14:00:12.869Z,22.40
2023-04-25T14:01:15.019Z,22.40
2023-04-25T14:02:17.389Z,22.60
2023-04-25T14:03:19.723Z,22.30
2023-04-25T14:04:21.758Z,22.20
2023-04-25T14:05:24.120Z,22.20
2023-04-25T14:06:26.421Z,22.00
2023-04-25T14:07:28.576Z,22.00
2023-04-25T14:08:30.699Z,22.20
2023-04-25T14:09:32.810Z,22.30
2023-04-25T14:10:35.685Z,22.40
2023-04-25T14:11:38.069Z,22.60
2023-04-25T14:12:40.093Z,22.60
2023-04-25T14:13:42.130Z,22.60
2023-04-25T14:14:44.293Z,22.60